Time;durP1;ratioP1;P1;durP2;ratioP2;P2;SDS_P1;SDS_P2;PMS_P1;PMS_P2;Temp;Humidity;BMP_temperature;BMP_pressure;BME280_temperature;BME280_humidity;BME280_pressure;Samples;Min_cycle;Max_cycle;Signal;HPM_P1;HPM_P2
2023/04/27 00:01:57;;;;;;;11.35;6.00;;;;;;;;;;5117326;28;20192;-70
2023/04/27 00:04:24;;;;;;;12.50;6.30;;;;;;;;;;5116917;28;20749;-70
2023/04/27 00:06:51;;;;;;;8.20;5.78;;;;;;;;;;5117294;28;20213;-70
2023/04/27 00:09:19;;;;;;;9.98;5.72;;;;;;;;;;5117053;28;20221;-71
2023/04/27 00:11:47;;;;;;;7.07;5.70;;;;;;;;;;5117445;28;20278;-70
2023/04/27 00:14:14;;;;;;;10.27;6.18;;;;;;;;;;5116934;28;20224;-71
2023/04/27 00:16:41;;;;;;;7.60;6.50;;;;;;;;;;5116871;28;20227;-70
2023/04/27 00:19:09;;;;;;;11.57;6.63;;;;;;;;;;5117032;28;20193;-71
2023/04/27 00:21:36;;;;;;;7.00;6.30;;;;;;;;;;5117001;28;20223;-71
2023/04/27 00:24:03;;;;;;;13.77;8.10;;;;;;;;;;5117568;28;20201;-71
2023/04/27 00:26:30;;;;;;;7.95;6.15;;;;;;;;;;5116548;28;20196;-71
2023/04/27 00:28:59;;;;;;;7.53;6.63;;;;;;;;;;5116844;28;20669;-71
2023/04/27 00:31:26;;;;;;;11.82;6.50;;;;;;;;;;5116869;28;20222;-71
2023/04/27 00:33:53;;;;;;;8.15;5.75;;;;;;;;;;5116806;28;20273;-70
2023/04/27 00:36:20;;;;;;;9.98;5.82;;;;;;;;;;5116409;28;20197;-71
2023/04/27 00:38:47;;;;;;;9.98;6.30;;;;;;;;;;5116718;28;20194;-70
2023/04/27 00:41:14;;;;;;;12.30;6.22;;;;;;;;;;5116305;28;20225;-71
2023/04/27 00:43:43;;;;;;;9.15;6.35;;;;;;;;;;5117266;28;20590;-70
2023/04/27 00:46:12;;;;;;;10.95;5.93;;;;;;;;;;5116273;28;20200;-70
2023/04/27 00:48:40;;;;;;;12.02;6.25;;;;;;;;;;5116496;28;20202;-70
2023/04/27 00:51:07;;;;;;;12.32;6.28;;;;;;;;;;5116330;28;20229;-70
2023/04/27 00:53:34;;;;;;;10.25;7.00;;;;;;;;;;5116242;28;20195;-71
2023/04/27 00:56:02;;;;;;;12.20;6.05;;;;;;;;;;5116322;28;20284;-71
2023/04/27 00:58:29;;;;;;;7.45;5.65;;;;;;;;;;5116017;28;20195;-70
2023/04/27 01:00:56;;;;;;;12.13;6.25;;;;;;;;;;5116185;28;20221;-71
2023/04/27 01:03:25;;;;;;;7.15;5.93;;;;;;;;;;5116146;28;20193;-71
2023/04/27 01:05:53;;;;;;;7.45;5.32;;;;;;;;;;5115876;28;20202;-71
2023/04/27 01:08:20;;;;;;;10.63;6.68;;;;;;;;;;5115806;28;20232;-71
2023/04/27 01:10:48;;;;;;;13.23;6.50;;;;;;;;;;5115948;28;20199;-70
2023/04/27 01:13:15;;;;;;;10.90;6.75;;;;;;;;;;5115977;28;20200;-71
2023/04/27 01:15:42;;;;;;;11.82;5.65;;;;;;;;;;5116604;28;20227;-71
2023/04/27 01:18:10;;;;;;;13.40;7.05;;;;;;;;;;5115776;28;20228;-71
2023/04/27 01:20:38;;;;;;;12.25;7.00;;;;;;;;;;5115755;28;20226;-70
2023/04/27 01:23:05;;;;;;;8.60;6.25;;;;;;;;;;5115864;28;20230;-70
2023/04/27 01:25:34;;;;;;;10.25;6.65;;;;;;;;;;5115523;28;20200;-71
2023/04/27 01:28:01;;;;;;;11.43;6.30;;;;;;;;;;5116208;28;20220;-71
2023/04/27 01:30:29;;;;;;;9.60;6.05;;;;;;;;;;5116031;28;20200;-71
2023/04/27 01:32:56;;;;;;;12.82;6.55;;;;;;;;;;5116140;28;20200;-71
2023/04/27 01:35:23;;;;;;;9.82;7.10;;;;;;;;;;5115570;28;20195;-71
2023/04/27 01:37:51;;;;;;;7.28;6.45;;;;;;;;;;5115814;28;20244;-71
2023/04/27 01:40:18;;;;;;;11.38;5.95;;;;;;;;;;5115067;28;20213;-71
2023/04/27 01:42:47;;;;;;;9.90;6.28;;;;;;;;;;5115480;28;20201;-71
2023/04/27 01:45:14;;;;;;;13.35;7.07;;;;;;;;;;5115446;28;20204;-72
2023/04/27 01:47:41;;;;;;;11.30;6.45;;;;;;;;;;5115301;28;20195;-71
2023/04/27 01:50:09;;;;;;;15.60;7.50;;;;;;;;;;5115459;28;20198;-71
2023/04/27 01:52:36;;;;;;;9.00;7.22;;;;;;;;;;5114858;28;20716;-70
2023/04/27 01:55:03;;;;;;;9.40;6.40;;;;;;;;;;5115204;28;20190;-71
2023/04/27 01:57:30;;;;;;;8.07;5.72;;;;;;;;;;5115073;28;20237;-70
2023/04/27 01:59:59;;;;;;;7.15;6.25;;;;;;;;;;5114803;28;20206;-71
2023/04/27 02:02:26;;;;;;;9.13;7.32;;;;;;;;;;5114867;28;20225;-70
2023/04/27 02:04:53;;;;;;;12.95;7.18;;;;;;;;;;5115520;28;20251;-70
2023/04/27 02:07:20;;;;;;;10.05;6.57;;;;;;;;;;5114854;28;20203;-71
2023/04/27 02:09:48;;;;;;;16.92;6.70;;;;;;;;;;5115177;28;20197;-71
2023/04/27 02:12:15;;;;;;;9.20;6.07;;;;;;;;;;5114856;28;20196;-71
2023/04/27 02:14:42;;;;;;;8.27;6.20;;;;;;;;;;5114833;28;20196;-70
2023/04/27 02:17:10;;;;;;;8.68;7.03;;;;;;;;;;5113872;28;20224;-71
2023/04/27 02:19:38;;;;;;;10.98;6.38;;;;;;;;;;5114761;28;20199;-70
2023/04/27 02:22:05;;;;;;;12.10;6.65;;;;;;;;;;5114755;28;20214;-70
2023/04/27 02:24:32;;;;;;;12.68;6.63;;;;;;;;;;5114746;28;20197;-71
2023/04/27 02:26:59;;;;;;;12.55;7.20;;;;;;;;;;5114806;28;20195;-70
2023/04/27 02:29:30;;;;;;;11.40;6.90;;;;;;;;;;5114529;28;20217;-71
2023/04/27 02:31:57;;;;;;;15.57;7.68;;;;;;;;;;5114843;28;20192;-71
2023/04/27 02:34:26;;;;;;;11.15;7.32;;;;;;;;;;5114760;28;20206;-71
2023/04/27 02:36:53;;;;;;;9.80;6.88;;;;;;;;;;5114753;28;20206;-71
2023/04/27 02:39:20;;;;;;;14.23;7.65;;;;;;;;;;5114442;28;20198;-70
2023/04/27 02:41:47;;;;;;;14.38;7.15;;;;;;;;;;5114244;28;20215;-71
2023/04/27 02:44:14;;;;;;;10.00;7.53;;;;;;;;;;5114365;28;20207;-71
2023/04/27 02:46:41;;;;;;;9.20;7.10;;;;;;;;;;5114378;28;20195;-71
2023/04/27 02:49:09;;;;;;;11.40;7.80;;;;;;;;;;5114276;28;20206;-70
2023/04/27 02:51:37;;;;;;;9.77;7.63;;;;;;;;;;5114056;28;20206;-70
2023/04/27 02:54:05;;;;;;;12.30;8.48;;;;;;;;;;5114189;28;20196;-70
2023/04/27 02:56:32;;;;;;;11.65;6.68;;;;;;;;;;5113774;28;20243;-71
2023/04/27 02:58:59;;;;;;;10.90;7.80;;;;;;;;;;5113818;28;20206;-71
2023/04/27 03:01:26;;;;;;;16.25;8.30;;;;;;;;;;5113675;28;20216;-71
2023/04/27 03:03:53;;;;;;;12.73;7.40;;;;;;;;;;5114016;28;20191;-71
2023/04/27 03:06:20;;;;;;;17.15;8.45;;;;;;;;;;5113991;28;20196;-72
2023/04/27 03:08:49;;;;;;;11.85;7.38;;;;;;;;;;5114084;28;20208;-72
2023/04/27 03:11:16;;;;;;;10.82;6.95;;;;;;;;;;5113976;28;20198;-72
2023/04/27 03:13:43;;;;;;;12.25;7.63;;;;;;;;;;5110752;28;20192;-72
2023/04/27 03:16:11;;;;;;;21.58;7.55;;;;;;;;;;5112670;28;20230;-72
2023/04/27 03:18:38;;;;;;;14.48;7.68;;;;;;;;;;5112799;28;20199;-72
2023/04/27 03:21:06;;;;;;;16.92;8.48;;;;;;;;;;5112453;28;20226;-73
2023/04/27 03:23:33;;;;;;;12.43;7.57;;;;;;;;;;5112992;28;20253;-72
2023/04/27 03:26:02;;;;;;;12.85;7.45;;;;;;;;;;5113008;28;20647;-72
2023/04/27 03:28:29;;;;;;;9.13;6.22;;;;;;;;;;5112854;28;20276;-72
2023/04/27 03:30:56;;;;;;;8.75;7.18;;;;;;;;;;5117239;28;20225;-72
2023/04/27 03:38:35;;;;;;;10.63;7.55;;;;;;;;;;5253469;23;20702;-72
2023/04/27 03:41:04;;;;;;;10.98;7.47;;;;;;;;;;5016596;28;20226;-72
2023/04/27 03:43:31;;;;;;;15.25;7.80;;;;;;;;;;5016715;28;20199;-72
2023/04/27 03:45:58;;;;;;;17.50;7.43;;;;;;;;;;5016474;28;20205;-74
2023/04/27 03:48:25;;;;;;;12.52;7.53;;;;;;;;;;5016429;28;20198;-72
2023/04/27 03:50:53;;;;;;;11.90;6.97;;;;;;;;;;5016739;28;20194;-73
2023/04/27 03:53:20;;;;;;;19.98;7.90;;;;;;;;;;5016149;28;20203;-72
2023/04/27 03:55:47;;;;;;;10.73;7.72;;;;;;;;;;5016614;28;20194;-72
2023/04/27 03:58:16;;;;;;;12.95;8.50;;;;;;;;;;5016858;28;20205;-72
2023/04/27 04:00:44;;;;;;;16.10;8.15;;;;;;;;;;5016832;28;20207;-72
2023/04/27 04:03:11;;;;;;;11.80;8.52;;;;;;;;;;5016605;28;20688;-72
2023/04/27 04:05:38;;;;;;;14.30;7.78;;;;;;;;;;5016575;28;20286;-72
2023/04/27 04:08:05;;;;;;;14.82;7.72;;;;;;;;;;5010916;28;20207;-72
2023/04/27 04:10:32;;;;;;;30.33;9.85;;;;;;;;;;4996844;28;20205;-71
2023/04/27 04:13:00;;;;;;;16.92;8.75;;;;;;;;;;4996833;28;20198;-72
2023/04/27 04:15:28;;;;;;;18.27;9.15;;;;;;;;;;4996818;28;20202;-72
2023/04/27 04:17:55;;;;;;;17.45;8.85;;;;;;;;;;4996928;28;20555;-72
2023/04/27 04:20:22;;;;;;;14.18;9.45;;;;;;;;;;4997303;28;20230;-72
2023/04/27 04:22:50;;;;;;;12.63;7.88;;;;;;;;;;4996691;28;20237;-72
2023/04/27 04:25:17;;;;;;;14.15;8.57;;;;;;;;;;4996471;28;20682;-72
2023/04/27 04:27:45;;;;;;;13.20;8.05;;;;;;;;;;4996542;28;20202;-73
2023/04/27 04:30:12;;;;;;;11.30;7.68;;;;;;;;;;4996073;28;20578;-72
2023/04/27 04:32:41;;;;;;;12.82;9.02;;;;;;;;;;4996178;28;20293;-68
2023/04/27 04:35:08;;;;;;;11.88;8.18;;;;;;;;;;4996446;28;20672;-76
2023/04/27 04:37:36;;;;;;;11.30;7.53;;;;;;;;;;4996169;28;21451;-72
2023/04/27 04:40:08;;;;;;;11.70;8.50;;;;;;;;;;4995855;28;20202;-73
2023/04/27 04:42:36;;;;;;;15.20;8.48;;;;;;;;;;4996447;28;20212;-73
2023/04/27 04:45:03;;;;;;;12.35;7.82;;;;;;;;;;4996352;28;20203;-73
2023/04/27 04:47:32;;;;;;;14.57;9.00;;;;;;;;;;4995772;28;20203;-73
2023/04/27 04:50:01;;;;;;;11.35;8.43;;;;;;;;;;4995955;28;20539;-73
2023/04/27 04:52:28;;;;;;;20.25;8.65;;;;;;;;;;4995876;28;20660;-73
2023/04/27 04:54:55;;;;;;;14.02;9.10;;;;;;;;;;4995893;28;20214;-73
2023/04/27 04:57:23;;;;;;;16.33;8.18;;;;;;;;;;4996241;28;20195;-73
2023/04/27 04:59:50;;;;;;;14.60;8.20;;;;;;;;;;4996148;28;20636;-73
2023/04/27 05:02:17;;;;;;;13.95;8.00;;;;;;;;;;4996357;28;20572;-71
2023/04/27 05:04:45;;;;;;;14.55;7.72;;;;;;;;;;4996064;28;20319;-73
2023/04/27 05:07:13;;;;;;;16.00;8.60;;;;;;;;;;4995717;28;20208;-73
2023/04/27 05:09:41;;;;;;;16.58;9.23;;;;;;;;;;4995698;28;20204;-73
2023/04/27 05:12:08;;;;;;;14.10;8.80;;;;;;;;;;4995790;28;20231;-73
2023/04/27 05:14:35;;;;;;;15.25;8.18;;;;;;;;;;4995887;28;20199;-73
2023/04/27 05:17:02;;;;;;;14.70;8.25;;;;;;;;;;4995608;28;20237;-73
2023/04/27 05:19:30;;;;;;;11.60;8.00;;;;;;;;;;4995928;28;20201;-73
2023/04/27 05:21:58;;;;;;;17.25;9.88;;;;;;;;;;4995572;28;20219;-73
2023/04/27 05:24:26;;;;;;;15.35;9.23;;;;;;;;;;4995687;28;20210;-73
2023/04/27 05:26:54;;;;;;;18.30;10.15;;;;;;;;;;4995054;28;20198;-74
2023/04/27 05:29:21;;;;;;;24.85;11.70;;;;;;;;;;4995302;28;20195;-73
2023/04/27 05:31:48;;;;;;;17.05;10.70;;;;;;;;;;4995278;28;20235;-73
2023/04/27 05:34:16;;;;;;;16.10;11.27;;;;;;;;;;4995553;28;20202;-73
2023/04/27 05:36:43;;;;;;;18.33;11.90;;;;;;;;;;4995471;28;20199;-73
2023/04/27 05:39:10;;;;;;;17.33;11.27;;;;;;;;;;4995632;28;20680;-73
2023/04/27 05:41:38;;;;;;;15.85;9.90;;;;;;;;;;4995648;28;20313;-73
2023/04/27 05:44:06;;;;;;;16.73;8.38;;;;;;;;;;4995172;28;20199;-73
2023/04/27 05:46:33;;;;;;;21.73;9.65;;;;;;;;;;4995188;28;20199;-73
2023/04/27 05:49:00;;;;;;;14.38;9.25;;;;;;;;;;4995447;28;20200;-73
2023/04/27 05:51:28;;;;;;;13.27;7.43;;;;;;;;;;4994371;28;20203;-73
2023/04/27 05:53:55;;;;;;;14.73;7.63;;;;;;;;;;4995327;28;20203;-73
2023/04/27 05:56:23;;;;;;;13.05;9.00;;;;;;;;;;4995369;28;20203;-73
2023/04/27 05:58:51;;;;;;;9.15;6.93;;;;;;;;;;4995499;28;20199;-73
2023/04/27 06:01:20;;;;;;;10.80;7.13;;;;;;;;;;4994899;28;20203;-73
2023/04/27 06:03:47;;;;;;;15.00;6.43;;;;;;;;;;4995480;28;20203;-73
2023/04/27 06:06:14;;;;;;;10.90;5.15;;;;;;;;;;4995435;28;20199;-73
2023/04/27 06:08:42;;;;;;;5.88;5.25;;;;;;;;;;4995732;28;20204;-73
2023/04/27 06:11:09;;;;;;;7.05;5.50;;;;;;;;;;4995069;28;20197;-73
2023/04/27 06:13:36;;;;;;;7.82;5.72;;;;;;;;;;4994591;28;20212;-73
2023/04/27 06:16:05;;;;;;;7.55;4.07;;;;;;;;;;4994876;28;20207;-73
2023/04/27 06:18:32;;;;;;;11.57;3.90;;;;;;;;;;4994762;28;20326;-73
2023/04/27 06:21:00;;;;;;;5.28;4.63;;;;;;;;;;4994713;28;20236;-73
2023/04/27 06:23:28;;;;;;;7.22;4.35;;;;;;;;;;4994497;28;20295;-73
2023/04/27 06:25:55;;;;;;;8.60;4.80;;;;;;;;;;4994600;28;20193;-73
2023/04/27 06:28:22;;;;;;;8.70;4.65;;;;;;;;;;4994299;28;20668;-73
2023/04/27 06:30:49;;;;;;;5.05;4.50;;;;;;;;;;4994776;28;20196;-73
2023/04/27 06:33:18;;;;;;;5.40;3.78;;;;;;;;;;4994720;28;20290;-73
2023/04/27 06:35:45;;;;;;;6.05;3.50;;;;;;;;;;4994337;28;20200;-73
2023/04/27 06:38:12;;;;;;;8.65;4.22;;;;;;;;;;4994024;28;20243;-73
2023/04/27 06:40:40;;;;;;;9.02;4.88;;;;;;;;;;4994542;28;20292;-73
2023/04/27 06:43:07;;;;;;;7.90;3.72;;;;;;;;;;4994483;28;20228;-73
2023/04/27 06:45:34;;;;;;;4.68;3.67;;;;;;;;;;4994384;28;20200;-73
2023/04/27 06:48:02;;;;;;;5.95;3.67;;;;;;;;;;4994166;28;20251;-73
2023/04/27 06:50:30;;;;;;;7.13;4.43;;;;;;;;;;4994587;28;20250;-73
2023/04/27 06:52:57;;;;;;;5.50;3.45;;;;;;;;;;4994973;28;20557;-73
2023/04/27 06:55:24;;;;;;;5.15;4.35;;;;;;;;;;4993913;28;20197;-73
2023/04/27 06:57:52;;;;;;;6.38;3.40;;;;;;;;;;4994072;28;20206;-73
2023/04/27 07:00:19;;;;;;;6.35;3.67;;;;;;;;;;4994167;28;20207;-73
2023/04/27 07:02:46;;;;;;;6.57;3.70;;;;;;;;;;4994508;28;20221;-73
2023/04/27 07:05:14;;;;;;;5.22;3.72;;;;;;;;;;4993845;28;20232;-73
2023/04/27 07:07:42;;;;;;;7.53;4.90;;;;;;;;;;4993861;28;20668;-73
2023/04/27 07:10:10;;;;;;;10.20;6.70;;;;;;;;;;4994274;28;20203;-73
2023/04/27 07:12:37;;;;;;;3.53;3.20;;;;;;;;;;4994161;28;20206;-73
2023/04/27 07:15:05;;;;;;;8.20;3.55;;;;;;;;;;4994099;28;20263;-73
2023/04/27 07:17:32;;;;;;;6.18;3.55;;;;;;;;;;4994183;28;20567;-73
2023/04/27 07:20:00;;;;;;;6.25;3.20;;;;;;;;;;4993743;28;20197;-73
2023/04/27 07:22:27;;;;;;;3.42;3.10;;;;;;;;;;4993762;28;20227;-73
2023/04/27 07:24:56;;;;;;;9.13;3.78;;;;;;;;;;4993872;28;20197;-73
2023/04/27 07:27:25;;;;;;;10.05;3.38;;;;;;;;;;4994499;28;20200;-74
2023/04/27 07:29:52;;;;;;;10.27;3.83;;;;;;;;;;4993775;28;20244;-73
2023/04/27 07:32:20;;;;;;;5.50;3.38;;;;;;;;;;4993896;28;20234;-73
2023/04/27 07:34:49;;;;;;;6.07;3.35;;;;;;;;;;4993955;28;20247;-72
2023/04/27 07:37:17;;;;;;;12.52;4.00;;;;;;;;;;4993752;28;20205;-73
2023/04/27 07:39:45;;;;;;;7.72;4.00;;;;;;;;;;4994168;28;20287;-73
2023/04/27 07:42:14;;;;;;;7.45;3.63;;;;;;;;;;4993524;28;20344;-73
2023/04/27 07:44:41;;;;;;;8.37;4.63;;;;;;;;;;4993366;28;20200;-73
2023/04/27 07:47:09;;;;;;;21.70;15.00;;;;;;;;;;4993835;28;20799;-73
2023/04/27 07:49:37;;;;;;;4.93;3.92;;;;;;;;;;4994410;28;20287;-73
2023/04/27 07:52:04;;;;;;;5.80;4.30;;;;;;;;;;4994307;28;20561;-72
2023/04/27 07:54:31;;;;;;;4.22;3.65;;;;;;;;;;4993405;28;20251;-73
2023/04/27 07:56:59;;;;;;;5.95;4.20;;;;;;;;;;4994037;28;20194;-73
2023/04/27 07:59:30;;;;;;;4.15;3.60;;;;;;;;;;4993638;28;20288;-73
2023/04/27 08:01:57;;;;;;;11.80;4.30;;;;;;;;;;4993788;28;20626;-72
2023/04/27 08:04:25;;;;;;;4.53;3.50;;;;;;;;;;4993510;28;20704;-73
2023/04/27 08:06:52;;;;;;;8.30;6.32;;;;;;;;;;4993629;28;20448;-73
2023/04/27 08:09:20;;;;;;;5.95;4.40;;;;;;;;;;4993816;28;20197;-73
2023/04/27 08:11:47;;;;;;;7.88;4.50;;;;;;;;;;4993884;28;20549;-72
2023/04/27 08:14:14;;;;;;;5.90;3.72;;;;;;;;;;4993648;28;20204;-73
2023/04/27 08:16:43;;;;;;;6.82;4.43;;;;;;;;;;4996859;28;20288;-72
2023/04/27 08:19:11;;;;;;;5.25;3.63;;;;;;;;;;4997113;28;20196;-73
2023/04/27 08:21:38;;;;;;;4.90;3.47;;;;;;;;;;4996949;28;20196;-73
2023/04/27 08:24:06;;;;;;;6.10;4.53;;;;;;;;;;4996920;28;20225;-73
2023/04/27 08:26:34;;;;;;;5.05;4.10;;;;;;;;;;4996933;28;20208;-73
2023/04/27 08:29:01;;;;;;;8.63;3.70;;;;;;;;;;4996893;28;20218;-72
2023/04/27 08:31:29;;;;;;;5.83;4.03;;;;;;;;;;4996286;28;20201;-72
2023/04/27 08:33:58;;;;;;;3.55;2.88;;;;;;;;;;4996875;28;20458;-73
2023/04/27 08:36:27;;;;;;;7.03;3.35;;;;;;;;;;4996968;28;20624;-72
2023/04/27 08:38:54;;;;;;;4.15;3.75;;;;;;;;;;4996275;28;20264;-73
2023/04/27 08:41:22;;;;;;;9.75;3.70;;;;;;;;;;4996620;28;20201;-73
2023/04/27 08:43:50;;;;;;;7.60;4.30;;;;;;;;;;4996667;28;20224;-73
2023/04/27 08:46:19;;;;;;;6.30;4.03;;;;;;;;;;4996287;28;20451;-73
2023/04/27 08:48:47;;;;;;;6.47;4.27;;;;;;;;;;4996248;28;20200;-73
2023/04/27 08:51:16;;;;;;;6.00;4.03;;;;;;;;;;4996835;28;20447;-73
2023/04/27 08:53:49;;;;;;;5.55;3.97;;;;;;;;;;4996975;28;20444;-73
2023/04/27 08:56:16;;;;;;;5.65;4.07;;;;;;;;;;4996617;28;20193;-72
2023/04/27 08:58:43;;;;;;;5.85;3.20;;;;;;;;;;4996388;28;20238;-73
2023/04/27 09:01:10;;;;;;;7.13;4.07;;;;;;;;;;4995908;28;20201;-73
2023/04/27 09:03:38;;;;;;;5.60;4.20;;;;;;;;;;4996193;28;20482;-71
2023/04/27 09:06:05;;;;;;;10.82;5.32;;;;;;;;;;4995820;28;20988;-74
2023/04/27 09:08:44;;;;;;;5.90;4.43;;;;;;;;;;4996688;28;20215;-74
2023/04/27 09:11:11;;;;;;;3.45;3.25;;;;;;;;;;4996130;28;20567;-72
2023/04/27 09:13:39;;;;;;;7.90;5.50;;;;;;;;;;4995883;28;20259;-73
2023/04/27 09:16:06;;;;;;;4.00;3.35;;;;;;;;;;4996300;28;20193;-73
2023/04/27 09:18:36;;;;;;;3.92;3.50;;;;;;;;;;4996002;28;20568;-72
2023/04/27 09:21:04;;;;;;;3.80;3.50;;;;;;;;;;4995817;28;20209;-72
2023/04/27 09:23:32;;;;;;;58.47;10.63;;;;;;;;;;4995837;28;20490;-73
2023/04/27 09:26:02;;;;;;;4.30;3.58;;;;;;;;;;4995687;28;20486;-72
2023/04/27 09:28:31;;;;;;;5.73;3.67;;;;;;;;;;4995839;28;20203;-71
2023/04/27 09:30:58;;;;;;;3.83;2.83;;;;;;;;;;4995444;28;20531;-71
2023/04/27 09:33:26;;;;;;;4.13;3.30;;;;;;;;;;4995440;28;20447;-71
2023/04/27 09:35:54;;;;;;;8.20;3.67;;;;;;;;;;4995833;28;20474;-71
2023/04/27 09:38:22;;;;;;;3.40;3.10;;;;;;;;;;4995543;28;20494;-73
2023/04/27 09:40:50;;;;;;;3.97;3.23;;;;;;;;;;4996144;28;20540;-73
2023/04/27 09:43:18;;;;;;;7.63;3.63;;;;;;;;;;4995740;28;20501;-72
2023/04/27 09:45:46;;;;;;;7.80;3.20;;;;;;;;;;4995136;28;20449;-73
2023/04/27 09:48:13;;;;;;;9.40;3.80;;;;;;;;;;4996073;28;20502;-72
2023/04/27 09:50:42;;;;;;;5.70;3.10;;;;;;;;;;4995445;28;20805;-73
2023/04/27 09:53:10;;;;;;;3.90;3.53;;;;;;;;;;4995051;28;20485;-73
2023/04/27 09:55:48;;;;;;;9.67;5.40;;;;;;;;;;4996299;28;20451;-72
2023/04/27 09:58:30;;;;;;;10.97;7.20;;;;;;;;;;4995445;28;20456;-73
2023/04/27 10:01:02;;;;;;;4.90;4.40;;;;;;;;;;4942911;28;20452;-71
2023/04/27 10:03:33;;;;;;;7.40;3.20;;;;;;;;;;4995533;28;20503;-73
2023/04/27 10:06:15;;;;;;;4.03;3.10;;;;;;;;;;4994679;28;20444;-73
2023/04/27 10:08:43;;;;;;;6.67;3.23;;;;;;;;;;4992158;28;20460;-73
2023/04/27 10:11:17;;;;;;;3.60;3.20;;;;;;;;;;4994854;28;20522;-73
2023/04/27 10:13:52;;;;;;;5.67;3.27;;;;;;;;;;4994894;28;20474;-70
2023/04/27 10:16:21;;;;;;;3.17;2.93;;;;;;;;;;4994899;28;20547;-71
2023/04/27 10:18:53;;;;;;;4.13;3.67;;;;;;;;;;4994800;28;20453;-72
2023/04/27 10:21:20;;;;;;;3.87;3.27;;;;;;;;;;4994447;28;20931;-72
2023/04/27 10:23:49;;;;;;;4.80;3.77;;;;;;;;;;4994949;28;20481;-72
2023/04/27 10:26:24;;;;;;;3.70;3.40;;;;;;;;;;4994900;28;20803;-72
2023/04/27 10:28:58;;;;;;;4.30;3.23;;;;;;;;;;4995178;28;20447;-72
2023/04/27 10:31:30;;;;;;;3.90;3.20;;;;;;;;;;4995114;28;20502;-72
2023/04/27 10:34:07;;;;;;;3.50;3.20;;;;;;;;;;4994502;28;20986;-72
2023/04/27 10:36:37;;;;;;;6.33;3.73;;;;;;;;;;4994842;28;20929;-72
2023/04/27 10:39:24;;;;;;;4.50;3.50;;;;;;;;;;4994188;28;20477;-72
2023/04/27 10:41:52;;;;;;;8.20;4.60;;;;;;;;;;4994144;28;20522;-72
2023/04/27 10:44:20;;;;;;;6.63;4.30;;;;;;;;;;4994329;28;20489;-72
2023/04/27 10:46:52;;;;;;;4.53;4.13;;;;;;;;;;4994431;28;20491;-72
2023/04/27 10:49:19;;;;;;;6.70;4.17;;;;;;;;;;4994308;28;20455;-72
2023/04/27 10:51:46;;;;;;;6.43;4.30;;;;;;;;;;4993910;28;20456;-72
2023/04/27 10:54:14;;;;;;;7.77;4.07;;;;;;;;;;4994260;28;20474;-72
2023/04/27 10:56:41;;;;;;;4.00;3.37;;;;;;;;;;4994509;28;20444;-72
2023/04/27 10:59:09;;;;;;;7.33;3.83;;;;;;;;;;4994204;28;20436;-72
2023/04/27 11:01:36;;;;;;;8.47;4.00;;;;;;;;;;4993855;28;20929;-71
2023/04/27 11:04:06;;;;;;;5.77;3.23;;;;;;;;;;4994073;28;20492;-71
2023/04/27 11:06:33;;;;;;;4.67;4.17;;;;;;;;;;4994433;28;20468;-71
2023/04/27 11:09:00;;;;;;;4.47;4.13;;;;;;;;;;4993612;28;20963;-71
2023/04/27 11:11:28;;;;;;;5.20;4.10;;;;;;;;;;4994047;28;20451;-71
2023/04/27 11:13:55;;;;;;;5.53;4.50;;;;;;;;;;4994064;28;20456;-72
2023/04/27 11:16:24;;;;;;;5.00;4.17;;;;;;;;;;4994147;28;20443;-72
2023/04/27 11:18:51;;;;;;;4.73;3.60;;;;;;;;;;4994019;28;20452;-71
2023/04/27 11:21:20;;;;;;;4.80;3.60;;;;;;;;;;4993607;28;20442;-72
2023/04/27 11:23:48;;;;;;;4.67;3.47;;;;;;;;;;4993734;28;20481;-71
2023/04/27 11:26:15;;;;;;;5.53;5.03;;;;;;;;;;4993874;28;20450;-72
2023/04/27 11:28:43;;;;;;;7.23;4.20;;;;;;;;;;4993494;28;20503;-71
2023/04/27 11:31:11;;;;;;;8.43;4.23;;;;;;;;;;4993669;28;20947;-71
2023/04/27 11:33:39;;;;;;;4.27;3.70;;;;;;;;;;4993737;28;20810;-72
2023/04/27 11:36:16;;;;;;;5.03;3.90;;;;;;;;;;4994586;28;20460;-72
2023/04/27 11:38:45;;;;;;;4.90;3.93;;;;;;;;;;4993812;28;20478;-72
2023/04/27 11:41:12;;;;;;;4.87;4.27;;;;;;;;;;4994049;28;20456;-72
2023/04/27 11:43:42;;;;;;;13.40;4.20;;;;;;;;;;4994123;28;20551;-73
2023/04/27 11:46:11;;;;;;;6.73;4.43;;;;;;;;;;4994128;28;20569;-72
2023/04/27 11:48:39;;;;;;;4.47;4.07;;;;;;;;;;4993670;28;20446;-72
2023/04/27 11:51:06;;;;;;;7.57;4.17;;;;;;;;;;4996876;28;20457;-73
2023/04/27 11:53:35;;;;;;;6.70;4.83;;;;;;;;;;4997511;28;20446;-72
2023/04/27 11:56:04;;;;;;;6.13;4.00;;;;;;;;;;4997457;28;20454;-73
2023/04/27 11:58:34;;;;;;;4.20;3.80;;;;;;;;;;4997700;28;20434;-73
2023/04/27 12:01:03;;;;;;;4.93;4.43;;;;;;;;;;4997741;28;20443;-72
2023/04/27 12:03:30;;;;;;;7.60;3.63;;;;;;;;;;4997344;28;20830;-80
2023/04/27 12:05:58;;;;;;;5.10;4.60;;;;;;;;;;4996149;28;20457;-71
2023/04/27 12:08:25;;;;;;;4.33;3.50;;;;;;;;;;4996761;28;20467;-73
2023/04/27 12:10:52;;;;;;;5.67;4.53;;;;;;;;;;4996901;28;20995;-73
2023/04/27 12:13:21;;;;;;;4.13;3.80;;;;;;;;;;4997128;28;20454;-73
2023/04/27 12:15:48;;;;;;;4.90;3.57;;;;;;;;;;4996768;28;20453;-72
2023/04/27 12:18:15;;;;;;;4.57;4.00;;;;;;;;;;4997003;28;20461;-73
2023/04/27 12:20:42;;;;;;;4.83;4.43;;;;;;;;;;4996805;28;20450;-72
2023/04/27 12:23:09;;;;;;;5.47;4.60;;;;;;;;;;5006792;28;20442;-73
2023/04/27 12:25:37;;;;;;;17.80;10.50;;;;;;;;;;5014517;28;20482;-74
2023/04/27 12:28:05;;;;;;;5.57;5.00;;;;;;;;;;5015409;28;20934;-73
2023/04/27 12:30:33;;;;;;;5.70;4.40;;;;;;;;;;5015819;28;20451;-74
2023/04/27 12:33:01;;;;;;;5.17;4.17;;;;;;;;;;5015424;28;20442;-74
2023/04/27 12:35:30;;;;;;;5.47;4.30;;;;;;;;;;5015330;28;20810;-73
2023/04/27 12:37:57;;;;;;;4.53;4.13;;;;;;;;;;5014925;28;20478;-74
2023/04/27 12:40:25;;;;;;;4.93;4.00;;;;;;;;;;5015363;28;20442;-74
2023/04/27 12:42:52;;;;;;;4.90;4.40;;;;;;;;;;5015240;28;20450;-73
2023/04/27 12:45:19;;;;;;;7.07;4.30;;;;;;;;;;5015160;28;20482;-74
2023/04/27 12:47:49;;;;;;;6.40;4.50;;;;;;;;;;5014935;28;20488;-74
2023/04/27 12:50:16;;;;;;;8.03;4.50;;;;;;;;;;5015133;28;20457;-73
2023/04/27 12:52:43;;;;;;;6.43;4.50;;;;;;;;;;5015078;28;20957;-73
2023/04/27 12:55:10;;;;;;;6.90;4.40;;;;;;;;;;5001882;28;20542;-73
2023/04/27 12:57:38;;;;;;;5.20;3.93;;;;;;;;;;4995195;28;20439;-73
2023/04/27 13:00:08;;;;;;;10.47;4.53;;;;;;;;;;4994919;28;20928;-73
2023/04/27 13:02:36;;;;;;;5.30;4.80;;;;;;;;;;4995545;28;20448;-73
2023/04/27 13:05:06;;;;;;;4.60;4.00;;;;;;;;;;4995802;28;20835;-70
2023/04/27 13:07:34;;;;;;;4.83;3.83;;;;;;;;;;4995568;28;20527;-70
2023/04/27 13:10:02;;;;;;;4.70;4.30;;;;;;;;;;4995843;28;20455;-73
2023/04/27 13:12:29;;;;;;;9.63;4.13;;;;;;;;;;4996108;28;20451;-68
2023/04/27 13:14:56;;;;;;;4.90;4.27;;;;;;;;;;4995670;28;20455;-68
2023/04/27 13:17:23;;;;;;;7.20;4.20;;;;;;;;;;4995325;28;20966;-69
2023/04/27 13:19:51;;;;;;;4.90;3.63;;;;;;;;;;4995558;28;20456;-68
2023/04/27 13:22:20;;;;;;;4.60;3.80;;;;;;;;;;4995210;28;20980;-69
2023/04/27 13:24:47;;;;;;;4.90;3.80;;;;;;;;;;4995272;28;20475;-69
2023/04/27 13:27:15;;;;;;;13.03;5.83;;;;;;;;;;4995476;28;20452;-68
2023/04/27 13:29:43;;;;;;;5.90;4.20;;;;;;;;;;4995264;28;20536;-68
2023/04/27 13:32:10;;;;;;;5.87;3.97;;;;;;;;;;4994990;28;20448;-68
2023/04/27 13:34:38;;;;;;;5.40;4.50;;;;;;;;;;5003247;28;20956;-68
2023/04/27 13:37:06;;;;;;;4.73;4.23;;;;;;;;;;4994552;28;20553;-68
2023/04/27 13:39:36;;;;;;;5.90;5.00;;;;;;;;;;4995004;28;20456;-68
2023/04/27 13:42:03;;;;;;;5.40;4.27;;;;;;;;;;4994756;28;20422;-68
2023/04/27 13:44:31;;;;;;;4.37;3.97;;;;;;;;;;4994829;28;20486;-68
2023/04/27 13:46:58;;;;;;;4.20;3.80;;;;;;;;;;4994797;28;20450;-68
2023/04/27 13:49:25;;;;;;;4.93;4.50;;;;;;;;;;4995073;28;20510;-68
2023/04/27 13:51:53;;;;;;;16.33;5.13;;;;;;;;;;4995239;28;20448;-69
2023/04/27 13:54:21;;;;;;;7.50;4.17;;;;;;;;;;4995466;28;20505;-68
2023/04/27 13:56:50;;;;;;;5.07;3.90;;;;;;;;;;4994669;28;20450;-67
2023/04/27 13:59:17;;;;;;;5.87;4.23;;;;;;;;;;4994226;28;20483;-69
2023/04/27 14:01:44;;;;;;;6.20;4.80;;;;;;;;;;4994730;28;20498;-72
2023/04/27 14:04:11;;;;;;;9.50;4.90;;;;;;;;;;4994304;28;20456;-72
2023/04/27 14:06:39;;;;;;;4.63;4.17;;;;;;;;;;4994763;28;20443;-69
2023/04/27 14:09:06;;;;;;;4.10;3.80;;;;;;;;;;4994789;28;20963;-69
2023/04/27 14:11:33;;;;;;;5.20;4.10;;;;;;;;;;4994446;28;20439;-70
2023/04/27 14:14:02;;;;;;;7.00;4.03;;;;;;;;;;4994292;28;20454;-69
2023/04/27 14:16:29;;;;;;;4.97;4.47;;;;;;;;;;4994437;28;20539;-68
2023/04/27 14:18:56;;;;;;;7.73;4.30;;;;;;;;;;4994592;28;20478;-69
2023/04/27 14:21:25;;;;;;;5.53;4.87;;;;;;;;;;4994410;28;20438;-69
2023/04/27 14:23:52;;;;;;;7.93;4.97;;;;;;;;;;4993966;28;20446;-69
2023/04/27 14:26:19;;;;;;;5.27;4.40;;;;;;;;;;4994282;28;20590;-69
2023/04/27 14:28:47;;;;;;;5.83;4.70;;;;;;;;;;4994682;28;20438;-69
2023/04/27 14:31:15;;;;;;;4.83;4.13;;;;;;;;;;4994140;28;20490;-68
2023/04/27 14:33:43;;;;;;;5.13;4.50;;;;;;;;;;4994445;28;20458;-68
2023/04/27 14:36:10;;;;;;;8.37;4.83;;;;;;;;;;4994352;28;20476;-69
2023/04/27 14:38:37;;;;;;;5.47;4.57;;;;;;;;;;4993333;28;20989;-68
2023/04/27 14:41:07;;;;;;;6.80;5.10;;;;;;;;;;4993541;28;20449;-70
2023/04/27 14:43:34;;;;;;;5.60;5.10;;;;;;;;;;4994059;28;20483;-69
2023/04/27 14:46:01;;;;;;;5.50;5.00;;;;;;;;;;4993603;28;20482;-71
2023/04/27 14:48:31;;;;;;;6.40;4.83;;;;;;;;;;4993696;28;20527;-70